Map

Track Data

SID SEASON NUMBER BASIN SUBBASIN NAME ISO_TIME NATURE LAT LON WMO_WIND WMO_PRES WMO_AGENCY TRACK_TYPE DIST2LAND LANDFALL IFLAG USA_AGENCY USA_ATCF_ID USA_LAT USA_LON USA_RECORD USA_STATUS USA_WIND USA_PRES USA_SSHS USA_R34_NE USA_R34_SE USA_R34_SW USA_R34_NW USA_R50_NE USA_R50_SE USA_R50_SW USA_R50_NW USA_R64_NE USA_R64_SE USA_R64_SW USA_R64_NW USA_POCI USA_ROCI USA_RMW USA_EYE TOKYO_LAT TOKYO_LON TOKYO_GRADE TOKYO_WIND TOKYO_PRES TOKYO_R50_DIR TOKYO_R50_LONG TOKYO_R50_SHORT TOKYO_R30_DIR TOKYO_R30_LONG TOKYO_R30_SHORT TOKYO_LAND CMA_LAT CMA_LON CMA_CAT CMA_WIND CMA_PRES HKO_LAT HKO_LON HKO_CAT HKO_WIND HKO_PRES NEWDELHI_LAT NEWDELHI_LON NEWDELHI_GRADE NEWDELHI_WIND NEWDELHI_PRES NEWDELHI_CI NEWDELHI_DP NEWDELHI_POCI REUNION_LAT REUNION_LON REUNION_TYPE REUNION_WIND REUNION_PRES REUNION_TNUM REUNION_CI REUNION_RMW REUNION_R34_NE REUNION_R34_SE REUNION_R34_SW REUNION_R34_NW REUNION_R50_NE REUNION_R50_SE REUNION_R50_SW REUNION_R50_NW REUNION_R64_NE REUNION_R64_SE REUNION_R64_SW REUNION_R64_NW BOM_LAT BOM_LON BOM_TYPE BOM_WIND BOM_PRES BOM_TNUM BOM_CI BOM_RMW BOM_R34_NE BOM_R34_SE BOM_R34_SW BOM_R34_NW BOM_R50_NE BOM_R50_SE BOM_R50_SW BOM_R50_NW BOM_R64_NE BOM_R64_SE BOM_R64_SW BOM_R64_NW BOM_ROCI BOM_POCI BOM_EYE BOM_POS_METHOD BOM_PRES_METHOD NADI_LAT NADI_LON NADI_CAT NADI_WIND NADI_PRES WELLINGTON_LAT WELLINGTON_LON WELLINGTON_WIND WELLINGTON_PRES DS824_LAT DS824_LON DS824_STAGE DS824_WIND DS824_PRES TD9636_LAT TD9636_LON TD9636_STAGE TD9636_WIND TD9636_PRES TD9635_LAT TD9635_LON TD9635_WIND TD9635_PRES TD9635_ROCI NEUMANN_LAT NEUMANN_LON NEUMANN_CLASS NEUMANN_WIND NEUMANN_PRES MLC_LAT MLC_LON MLC_CLASS MLC_WIND MLC_PRES USA_GUST BOM_GUST BOM_GUST_PER REUNION_GUST REUNION_GUST_PER USA_SEAHGT USA_SEARAD_NE USA_SEARAD_SE USA_SEARAD_SW USA_SEARAD_NW STORM_SPEED STORM_DIR
1861279N20314 1861 29 NA NA NOT_NAMED 1861-10-06 00:00:00 TS 20.0000 -46.0000 60 hurdat_atl main 1802 1802 O_____________ hurdat_atl AL061861 20.0000 -46.0000 TS 60 0 14 317
1861279N20314 1861 29 NA NA NOT_NAMED 1861-10-06 03:00:00 TS 20.5003 -46.4994 main 1832 1832 P_____________ AL061861 20.5003 -46.4994 TS 60 0 14 317
1861279N20314 1861 29 NA NA NOT_NAMED 1861-10-06 06:00:00 TS 21.0000 -47.0000 60 hurdat_atl main 1860 1860 O_____________ hurdat_atl AL061861 21.0000 -47.0000 TS 60 0 14 317
1861279N20314 1861 29 NA NA NOT_NAMED 1861-10-06 09:00:00 TS 21.4998 -47.5003 main 1879 1869 P_____________ AL061861 21.4998 -47.5003 TS 60 0 14 317
1861279N20314 1861 29 NA NA NOT_NAMED 1861-10-06 12:00:00 TS 22.0000 -48.0000 60 hurdat_atl main 1875 1838 O_____________ hurdat_atl AL061861 22.0000 -48.0000 TS 60 0 14 317
1861279N20314 1861 29 NA NA NOT_NAMED 1861-10-06 15:00:00 TS 22.4998 -48.5004 main 1838 1800 P_____________ AL061861 22.4998 -48.5004 TS 60 0 14 317
1861279N20314 1861 29 NA NA NOT_NAMED 1861-10-06 18:00:00 TS 23.0000 -49.0000 60 hurdat_atl main 1800 1764 O_____________ hurdat_atl AL061861 23.0000 -49.0000 TS 60 0 14 317
1861279N20314 1861 29 NA NA NOT_NAMED 1861-10-06 21:00:00 TS 23.4998 -49.5004 main 1764 1732 P_____________ AL061861 23.4998 -49.5004 TS 60 0 14 317
1861279N20314 1861 29 NA NA NOT_NAMED 1861-10-07 00:00:00 TS 24.0000 -50.0000 60 hurdat_atl main 1732 1703 O_____________ hurdat_atl AL061861 24.0000 -50.0000 TS 60 0 14 318
1861279N20314 1861 29 NA NA NOT_NAMED 1861-10-07 03:00:00 TS 24.4998 -50.5004 main 1703 1677 P_____________ AL061861 24.4998 -50.5004 TS 60 0 14 318
1861279N20314 1861 29 NA NA NOT_NAMED 1861-10-07 06:00:00 TS 25.0000 -51.0000 60 hurdat_atl main 1677 1649 O_____________ hurdat_atl AL061861 25.0000 -51.0000 TS 60 0 14 317
1861279N20314 1861 29 NA NA NOT_NAMED 1861-10-07 09:00:00 TS 25.4850 -51.5154 main 1654 1635 P_____________ AL061861 25.4850 -51.5154 TS 60 0 14 318
1861279N20314 1861 29 NA NA NOT_NAMED 1861-10-07 12:00:00 TS 26.0000 -52.0000 60 hurdat_atl main 1635 1625 O_____________ hurdat_atl AL061861 26.0000 -52.0000 TS 60 0 14 323
1861279N20314 1861 29 NA NA NOT_NAMED 1861-10-07 15:00:00 TS 26.5774 -52.4303 main 1634 1626 P_____________ AL061861 26.5774 -52.4303 TS 60 0 14 329
1861279N20314 1861 29 NA NA NOT_NAMED 1861-10-07 18:00:00 TS 27.2000 -52.8000 60 hurdat_atl main 1637 1635 O_____________ hurdat_atl AL061861 27.2000 -52.8000 TS 60 0 14 334
1861279N20314 1861 29 NA NA NOT_NAMED 1861-10-07 21:00:00 TS 27.8274 -53.1304 main 1652 1651 P_____________ AL061861 27.8274 -53.1304 TS 60 0 14 338
1861279N20314 1861 29 NA NA NOT_NAMED 1861-10-08 00:00:00 TS 28.5000 -53.4000 60 hurdat_atl main 1677 1677 O_____________ hurdat_atl AL061861 28.5000 -53.4000 TS 60 0 14 342
1861279N20314 1861 29 NA NA NOT_NAMED 1861-10-08 03:00:00 TS 29.1975 -53.6303 main 1713 1713 P_____________ AL061861 29.1975 -53.6303 TS 60 0 15 347
1861279N20314 1861 29 NA NA NOT_NAMED 1861-10-08 06:00:00 TS 30.0000 -53.8000 60 hurdat_atl main 1761 1707 O_____________ hurdat_atl AL061861 30.0000 -53.8000 TS 60 0 18 351
1861279N20314 1861 29 NA NA NOT_NAMED 1861-10-08 09:00:00 TS 30.9625 -53.9590 main 1696 1602 P_____________ AL061861 30.9625 -53.9590 TS 60 0 20 355
1861279N20314 1861 29 NA NA NOT_NAMED 1861-10-08 12:00:00 TS 32.0000 -54.0000 60 hurdat_atl main 1591 1491 O_____________ hurdat_atl AL061861 32.0000 -54.0000 TS 60 0 21 1
1861279N20314 1861 29 NA NA NOT_NAMED 1861-10-08 15:00:00 TS 33.0370 -53.9046 main 1491 1400 P_____________ AL061861 33.0370 -53.9046 TS 60 0 20 10
1861279N20314 1861 29 NA NA NOT_NAMED 1861-10-08 18:00:00 TS 34.0000 -53.6000 60 hurdat_atl main 1400 1312 O_____________ hurdat_atl AL061861 34.0000 -53.6000 TS 60 0 19 22
1861279N20314 1861 29 NA NA NOT_NAMED 1861-10-08 21:00:00 TS 34.8029 -53.0531 main 1312 1236 P_____________ AL061861 34.8029 -53.0531 TS 55 0 18 33
1861279N20314 1861 29 NA NA NOT_NAMED 1861-10-09 00:00:00 TS 35.5000 -52.4000 50 hurdat_atl main 1236 1173 O_____________ hurdat_atl AL061861 35.5000 -52.4000 TS 50 0 17 35
1861279N20314 1861 29 NA NA NOT_NAMED 1861-10-09 03:00:00 TS 36.1719 -51.8559 main 1161 1101 P_____________ AL061861 36.1719 -51.8559 TS 50 0 16 34
1861279N20314 1861 29 NA NA NOT_NAMED 1861-10-09 06:00:00 TS 36.8000 -51.3000 50 hurdat_atl main 1101 1042 O_____________ hurdat_atl AL061861 36.8000 -51.3000 TS 50 0 16 37
1861279N20314 1861 29 NA NA NOT_NAMED 1861-10-09 09:00:00 TS 37.4221 -50.6792 main 1043 991 P_____________ AL061861 37.4221 -50.6792 TS 50 0 16 41
1861279N20314 1861 29 NA NA NOT_NAMED 1861-10-09 12:00:00 TS 38.0000 -50.0000 50 hurdat_atl main 991 952 O_____________ hurdat_atl AL061861 38.0000 -50.0000 TS 50 0 16 45
1861279N20314 1861 29 NA NA NOT_NAMED 1861-10-09 15:00:00 TS 38.5186 -49.2669 main 955 927 P_____________ AL061861 38.5186 -49.2669 TS 50 0 15 50
1861279N20314 1861 29 NA NA NOT_NAMED 1861-10-09 18:00:00 TS 39.0000 -48.5000 50 hurdat_atl main 927 O_____________ hurdat_atl AL061861 39.0000 -48.5000 TS 50 0 15 51

About IBTrACS Database

This database is a web-friendly format of International Best Track Archive for Climate Stewardship (IBTrACS), a global best track data archive curated by NOAA dating back to 1842.

Updated: 2021-12-08